createdAt,value
2022-08-18T00:01:23.993Z,101515.69
2022-08-18T00:03:56.026Z,101524.97
2022-08-18T00:06:29.294Z,101521.91
2022-08-18T00:09:01.154Z,101522.94
2022-08-18T00:11:41.044Z,101507.13
2022-08-18T00:14:11.544Z,101512.34
2022-08-18T00:16:41.121Z,101511.50
2022-08-18T00:19:09.467Z,101509.66
2022-08-18T00:21:36.394Z,101509.47
2022-08-18T00:24:03.536Z,101495.38
2022-08-18T00:26:34.795Z,101505.59
2022-08-18T00:29:03.691Z,101498.34
2022-08-18T00:31:31.551Z,101506.22
2022-08-18T00:33:58.641Z,101498.53
2022-08-18T00:36:25.292Z,101505.59
2022-08-18T00:38:51.965Z,101504.56
2022-08-18T00:41:19.401Z,101506.88
2022-08-18T00:43:49.132Z,101499.63
2022-08-18T00:46:19.480Z,101503.34
2022-08-18T00:48:48.342Z,101505.19
2022-08-18T00:51:29.866Z,101506.44
2022-08-18T00:54:03.128Z,101509.13
2022-08-18T00:56:44.956Z,101510.97
2022-08-18T00:59:48.223Z,101507.06
2022-08-18T01:02:24.759Z,101506.03
2022-08-18T01:05:08.792Z,101507.88
2022-08-18T01:07:47.851Z,101508.72
2022-08-18T01:10:19.132Z,101506.44
2022-08-18T01:12:53.017Z,101508.53
2022-08-18T01:15:29.051Z,101506.69
2022-08-18T01:18:16.911Z,101512.91
2022-08-18T01:21:10.999Z,101511.06
2022-08-18T01:23:39.424Z,101516.63
2022-08-18T01:26:06.340Z,101517.44
2022-08-18T01:28:39.967Z,101512.06
2022-08-18T01:31:08.211Z,101514.59
2022-08-18T01:33:38.649Z,101514.94
2022-08-18T01:36:31.412Z,101513.09
2022-08-18T01:38:58.052Z,101514.09
2022-08-18T01:41:30.310Z,101522.84
2022-08-18T01:44:02.182Z,101520.31
2022-08-18T01:46:33.648Z,101520.31
2022-08-18T01:49:01.492Z,101519.31
2022-08-18T01:51:38.062Z,101518.94
2022-08-18T01:54:08.406Z,101516.25
2022-08-18T01:56:36.776Z,101518.13
2022-08-18T01:59:04.918Z,101519.47
2022-08-18T02:01:37.018Z,101523.84
2022-08-18T02:04:31.271Z,101517.81
2022-08-18T02:06:52.572Z,101519.88
2022-08-18T02:09:23.840Z,101514.84
2022-08-18T02:11:53.044Z,101530.63
2022-08-18T02:14:26.856Z,101518.19
2022-08-18T02:17:01.600Z,101511.97
2022-08-18T02:19:36.783Z,101512.16
2022-08-18T02:22:04.967Z,101507.44
2022-08-18T02:24:31.718Z,101503.72
2022-08-18T02:26:59.122Z,101501.88
2022-08-18T02:29:25.652Z,101512.44
2022-08-18T02:31:52.184Z,101505.41
2022-08-18T02:34:18.866Z,101513.28
2022-08-18T02:36:45.884Z,101513.09
2022-08-18T02:39:12.724Z,101511.41
2022-08-18T02:41:39.490Z,101505.41
2022-08-18T02:44:09.665Z,101513.94
2022-08-18T02:46:37.271Z,101510.41
2022-08-18T02:49:07.493Z,101511.25
2022-08-18T02:51:34.159Z,101512.44
2022-08-18T02:54:00.713Z,101517.63
2022-08-18T02:56:41.430Z,101522.19
2022-08-18T02:59:12.069Z,101528.88
2022-08-18T03:01:41.231Z,101528.88
2022-08-18T03:04:09.680Z,101523.00
2022-08-18T03:06:37.711Z,101531.56
2022-08-18T03:09:06.503Z,101535.94
2022-08-18T03:11:33.369Z,101531.94
2022-08-18T03:14:01.217Z,101537.97
2022-08-18T03:16:28.834Z,101535.28
2022-08-18T03:18:55.438Z,101538.44
2022-08-18T03:21:24.937Z,101534.91
2022-08-18T03:24:00.790Z,101538.44
2022-08-18T03:26:30.075Z,101557.09
2022-08-18T03:28:58.394Z,101546.50
2022-08-18T03:31:27.669Z,101548.72
2022-08-18T03:33:59.191Z,101558.97
2022-08-18T03:36:30.058Z,101545.03
2022-08-18T03:38:57.068Z,101551.06
2022-08-18T03:41:43.605Z,101549.03
2022-08-18T03:44:15.509Z,101550.22
2022-08-18T03:46:44.304Z,101560.63
2022-08-18T03:49:12.397Z,101552.25
2022-08-18T03:51:43.621Z,101551.41
2022-08-18T03:54:11.123Z,101551.41
2022-08-18T03:56:38.947Z,101551.91
2022-08-18T03:59:17.834Z,101545.69
2022-08-18T04:01:46.757Z,101547.06
2022-08-18T04:04:16.566Z,101537.69
2022-08-18T04:06:46.505Z,101553.44
2022-08-18T04:09:14.779Z,101547.41
2022-08-18T04:11:43.465Z,101555.47
2022-08-18T04:14:13.672Z,101541.75
2022-08-18T04:16:40.931Z,101541.41
2022-08-18T04:19:08.957Z,101534.53
2022-08-18T04:21:39.490Z,101537.41
2022-08-18T04:24:08.185Z,101531.34
2022-08-18T04:26:37.613Z,101524.66
2022-08-18T04:29:06.098Z,101536.72
2022-08-18T04:31:32.922Z,101547.97
2022-08-18T04:34:01.141Z,101539.91
2022-08-18T04:36:29.008Z,101538.88
2022-08-18T04:38:56.470Z,101540.75
2022-08-18T04:41:27.424Z,101546.13
2022-08-18T04:43:55.754Z,101547.13
2022-08-18T04:46:24.042Z,101545.28
2022-08-18T04:48:52.260Z,101553.53
2022-08-18T04:52:36.460Z,101551.84
2022-08-18T04:54:07.068Z,101559.75
2022-08-18T04:56:37.413Z,101562.25
2022-08-18T04:59:10.154Z,101560.22
2022-08-18T05:01:47.572Z,101557.72
2022-08-18T05:04:16.870Z,101562.09
2022-08-18T05:06:44.530Z,101554.84
2022-08-18T05:09:13.258Z,101556.88
2022-08-18T05:11:44.483Z,101568.31
2022-08-18T05:14:11.595Z,101564.97
2022-08-18T05:16:47.765Z,101566.44
2022-08-18T05:19:23.143Z,101555.38
2022-08-18T05:21:51.580Z,101562.94
2022-08-18T05:24:21.569Z,101556.53
2022-08-18T05:26:49.079Z,101561.91
2022-08-18T05:29:18.747Z,101546.78
2022-08-18T05:31:48.064Z,101549.91
2022-08-18T05:34:17.423Z,101555.97
2022-08-18T05:36:53.113Z,101561.16
2022-08-18T05:39:19.515Z,101557.81
2022-08-18T05:41:52.952Z,101563.69
2022-08-18T05:44:27.219Z,101554.78
2022-08-18T05:47:11.365Z,101559.31
2022-08-18T05:49:39.149Z,101559.31
2022-08-18T05:52:15.193Z,101569.06
2022-08-18T05:55:07.262Z,101566.00
2022-08-18T05:57:43.785Z,101563.16
2022-08-18T06:00:11.801Z,101553.22
2022-08-18T06:02:48.253Z,101560.91
2022-08-18T06:05:35.973Z,101570.28
2022-08-18T06:08:08.982Z,101563.91
2022-08-18T06:10:37.008Z,101554.81
2022-08-18T06:13:08.036Z,101551.56
2022-08-18T06:15:53.303Z,101558.28
2022-08-18T06:18:41.779Z,101549.34
2022-08-18T06:21:38.767Z,101546.66
2022-08-18T06:24:43.464Z,101558.38
2022-08-18T06:27:19.301Z,101549.13
2022-08-18T06:30:07.921Z,101550.56
2022-08-18T06:33:09.484Z,101545.19
2022-08-18T06:35:45.222Z,101553.38
2022-08-18T06:38:40.252Z,101557.56
2022-08-18T06:41:42.263Z,101553.66
2022-08-18T06:44:32.565Z,101555.13
2022-08-18T06:47:12.092Z,101546.22
2022-08-18T06:49:48.413Z,101553.75
2022-08-18T06:52:29.158Z,101556.44
2022-08-18T06:55:00.839Z,101567.69
2022-08-18T06:57:39.367Z,101564.59
2022-08-18T07:00:06.667Z,101574.00
2022-08-18T07:02:45.718Z,101579.84
2022-08-18T07:05:20.564Z,101575.31
2022-08-18T07:08:20.405Z,101573.25
2022-08-18T07:10:51.041Z,101577.91
2022-08-18T07:13:31.258Z,101583.75
2022-08-18T07:16:54.394Z,101590.63
2022-08-18T07:19:18.401Z,101585.91
2022-08-18T07:21:45.217Z,101581.34
2022-08-18T07:24:28.287Z,101588.41
2022-08-18T07:27:03.133Z,101589.88
2022-08-18T07:29:32.868Z,101596.28
2022-08-18T07:32:05.048Z,101591.72
2022-08-18T07:34:38.060Z,101589.69
2022-08-18T07:37:07.381Z,101591.38
2022-08-18T07:39:51.151Z,101592.69
2022-08-18T07:42:54.068Z,101590.84
2022-08-18T07:45:37.233Z,101611.38
2022-08-18T07:48:37.072Z,101611.56
2022-08-18T07:51:19.837Z,101619.81
2022-08-18T07:53:56.827Z,101625.91
2022-08-18T07:56:58.800Z,101624.06
2022-08-18T07:59:53.040Z,101626.97
2022-08-18T08:02:55.137Z,101613.94
2022-08-18T08:05:42.141Z,101631.81
2022-08-18T08:08:35.624Z,101624.56
2022-08-18T08:11:13.868Z,101635.34
2022-08-18T08:13:59.837Z,101640.53
2022-08-18T08:16:35.287Z,101632.81
2022-08-18T08:19:49.278Z,101625.56
2022-08-18T08:22:20.870Z,101631.97
2022-08-18T08:25:35.061Z,101631.31
2022-08-18T08:28:13.399Z,101627.59
2022-08-18T08:31:37.293Z,101626.13
2022-08-18T08:34:07.111Z,101627.59
2022-08-18T08:36:39.512Z,101616.19
2022-08-18T08:39:17.785Z,101620.00
2022-08-18T08:42:29.697Z,101627.53
2022-08-18T08:44:59.967Z,101618.31
2022-08-18T08:47:34.429Z,101614.13
2022-08-18T08:50:13.177Z,101608.00
2022-08-18T08:53:00.957Z,101620.34
2022-08-18T08:55:31.567Z,101616.25
2022-08-18T08:58:38.808Z,101621.63
2022-08-18T09:01:06.135Z,101624.69
2022-08-18T09:03:57.749Z,101616.97
2022-08-18T09:07:02.911Z,101622.38
2022-08-18T09:09:47.420Z,101622.38
2022-08-18T09:12:29.258Z,101620.97
2022-08-18T09:15:34.111Z,101622.06
2022-08-18T09:18:14.604Z,101628.13
2022-08-18T09:20:50.238Z,101628.28
2022-08-18T09:23:25.320Z,101619.78
2022-08-18T09:25:57.113Z,101630.56
2022-08-18T09:28:56.483Z,101630.09
2022-08-18T09:31:24.857Z,101628.59
2022-08-18T09:34:14.850Z,101645.16
2022-08-18T09:37:16.939Z,101640.72
2022-08-18T09:40:14.705Z,101645.63
2022-08-18T09:42:49.897Z,101641.28
2022-08-18T09:45:34.265Z,101643.13
2022-08-18T09:48:13.105Z,101646.47
2022-08-18T09:51:20.853Z,101641.56
2022-08-18T09:53:52.295Z,101644.91
2022-08-18T09:56:54.538Z,101643.69
2022-08-18T10:02:30.126Z,101642.56
2022-08-18T10:05:28.263Z,101637.81
2022-08-18T10:08:03.882Z,101633.06
2022-08-18T10:11:01.084Z,101627.69
2022-08-18T10:13:48.332Z,101628.28
2022-08-18T10:16:28.150Z,101625.41
2022-08-18T10:19:15.953Z,101621.22
2022-08-18T10:21:58.413Z,101618.63
2022-08-18T10:24:47.106Z,101614.91
2022-08-18T10:27:45.600Z,101614.53
2022-08-18T10:30:34.451Z,101616.81
2022-08-18T10:35:59.605Z,101610.59
2022-08-18T10:38:41.174Z,101607.91
2022-08-18T10:41:20.157Z,101621.38
2022-08-18T10:43:56.051Z,101627.63
2022-08-18T10:46:46.646Z,101627.09
2022-08-18T10:49:13.566Z,101632.09
2022-08-18T10:52:04.955Z,101628.00
2022-08-18T10:54:54.589Z,101631.31
2022-08-18T10:57:50.446Z,101628.44
2022-08-18T11:00:22.454Z,101629.28
2022-08-18T11:06:01.413Z,101633.47
2022-08-18T11:08:28.271Z,101631.59
2022-08-18T11:11:24.867Z,101633.91
2022-08-18T11:14:20.075Z,101633.91
2022-08-18T11:17:27.465Z,101633.91
2022-08-18T11:19:54.695Z,101631.22
2022-08-18T11:22:33.033Z,101627.69
2022-08-18T11:25:03.004Z,101623.31
2022-08-18T11:27:35.696Z,101628.53
2022-08-18T11:30:05.546Z,101626.47
2022-08-18T11:32:35.001Z,101627.50
2022-08-18T11:35:11.952Z,101619.41
2022-08-18T11:37:51.339Z,101621.91
2022-08-18T11:40:52.030Z,101629.34
2022-08-18T11:43:10.530Z,101625.63
2022-08-18T11:45:44.325Z,101629.81
2022-08-18T11:48:37.607Z,101621.72
2022-08-18T11:51:34.265Z,101622.53
2022-08-18T11:54:14.822Z,101621.72
2022-08-18T11:56:41.386Z,101624.41
2022-08-18T11:59:25.074Z,101619.03
2022-08-18T12:02:17.174Z,101620.66
2022-08-18T12:04:44.082Z,101613.22
2022-08-18T12:07:20.489Z,101617.59
2022-08-18T12:10:29.753Z,101610.31
2022-08-18T12:13:00.711Z,101604.28
2022-08-18T12:15:43.523Z,101596.38
2022-08-18T12:18:28.669Z,101597.66
2022-08-18T12:20:58.937Z,101601.22
2022-08-18T12:23:26.085Z,101603.53
2022-08-18T12:25:52.637Z,101597.94
2022-08-18T12:28:22.417Z,101593.75
2022-08-18T12:30:56.041Z,101588.53
2022-08-18T12:33:25.453Z,101574.41
2022-08-18T12:35:52.672Z,101570.03
2022-08-18T12:38:19.318Z,101574.03
2022-08-18T12:40:45.986Z,101591.69
2022-08-18T12:43:12.570Z,101585.66
2022-08-18T12:45:40.414Z,101594.59
2022-08-18T12:48:08.798Z,101594.59
2022-08-18T12:50:50.148Z,101590.03
2022-08-18T12:53:30.170Z,101577.19
2022-08-18T12:56:19.695Z,101571.59
2022-08-18T12:58:46.839Z,101577.59
2022-08-18T13:01:13.468Z,101571.81
2022-08-18T13:03:45.377Z,101569.31
2022-08-18T13:06:19.883Z,101581.41
2022-08-18T13:08:48.169Z,101569.56
2022-08-18T13:11:23.597Z,101579.53
2022-08-18T13:13:56.223Z,101579.34
2022-08-18T13:16:38.809Z,101580.56
2022-08-18T13:19:13.670Z,101583.91
2022-08-18T13:21:43.071Z,101570.69
2022-08-18T13:24:12.707Z,101587.50
2022-08-18T13:26:43.001Z,101574.81
2022-08-18T13:29:12.941Z,101575.47
2022-08-18T13:31:40.936Z,101572.31
2022-08-18T13:34:19.255Z,101581.66
2022-08-18T13:36:48.295Z,101593.06
2022-08-18T13:39:20.114Z,101593.91
2022-08-18T13:41:49.507Z,101598.09
2022-08-18T13:44:19.005Z,101606.00
2022-08-18T13:46:48.253Z,101612.25
2022-08-18T13:50:04.714Z,101609.34
2022-08-18T13:52:35.624Z,101620.16
2022-08-18T13:55:08.102Z,101620.78
2022-08-18T13:57:36.305Z,101622.28
2022-08-18T14:00:06.045Z,101619.38
2022-08-18T14:02:40.098Z,101619.84
2022-08-18T14:05:09.224Z,101613.03
2022-08-18T14:07:37.748Z,101615.97
2022-08-18T14:10:10.744Z,101615.56
2022-08-18T14:12:41.664Z,101618.91
2022-08-18T14:15:11.666Z,101626.63
2022-08-18T14:17:39.443Z,101623.72
2022-08-18T14:20:27.399Z,101624.19
2022-08-18T14:23:23.889Z,101624.78
2022-08-18T14:26:12.876Z,101623.75
2022-08-18T14:28:41.211Z,101612.97
2022-08-18T14:31:08.375Z,101603.41
2022-08-18T14:33:50.819Z,101606.34
2022-08-18T14:36:20.034Z,101603.25
2022-08-18T14:38:57.600Z,101603.44
2022-08-18T14:41:27.178Z,101602.41
2022-08-18T14:44:12.981Z,101608.25
2022-08-18T14:46:40.901Z,101616.16
2022-08-18T14:49:08.117Z,101604.53
2022-08-18T14:51:34.758Z,101607.84
2022-08-18T14:54:02.068Z,101595.16
2022-08-18T14:56:29.572Z,101612.66
2022-08-18T14:58:56.405Z,101599.34
2022-08-18T15:01:24.657Z,101597.69
2022-08-18T15:03:55.098Z,101606.41
2022-08-18T15:06:22.942Z,101597.09
2022-08-18T15:08:53.456Z,101588.16
2022-08-18T15:11:23.843Z,101586.91
2022-08-18T15:13:50.636Z,101585.06
2022-08-18T15:16:17.784Z,101580.47
2022-08-18T15:18:46.209Z,101568.66
2022-08-18T15:21:35.547Z,101567.16
2022-08-18T15:24:24.418Z,101574.03
2022-08-18T15:26:56.932Z,101569.28
2022-08-18T15:29:29.057Z,101565.75
2022-08-18T15:32:01.981Z,101571.75
2022-08-18T15:34:31.540Z,101571.16
2022-08-18T15:37:09.903Z,101565.94
2022-08-18T15:39:36.869Z,101566.16
2022-08-18T15:42:10.282Z,101567.88
2022-08-18T15:44:37.573Z,101573.91
2022-08-18T15:47:05.920Z,101567.28
2022-08-18T15:49:36.145Z,101572.50
2022-08-18T15:52:02.890Z,101576.28
2022-08-18T15:54:29.487Z,101575.88
2022-08-18T15:56:58.127Z,101571.91
2022-08-18T15:59:34.158Z,101573.59
2022-08-18T16:02:06.915Z,101575.69
2022-08-18T16:04:38.377Z,101567.19
2022-08-18T16:07:05.311Z,101556.38
2022-08-18T16:09:31.957Z,101560.75
2022-08-18T16:12:00.522Z,101558.63
2022-08-18T16:14:27.175Z,101563.84
2022-08-18T16:16:55.251Z,101559.50
2022-08-18T16:19:25.661Z,101558.25
2022-08-18T16:21:56.665Z,101557.41
2022-08-18T16:24:23.658Z,101564.09
2022-08-18T16:26:51.935Z,101562.22
2022-08-18T16:29:19.347Z,101562.84
2022-08-18T16:31:46.513Z,101559.13
2022-08-18T16:34:13.098Z,101565.56
2022-08-18T16:36:39.711Z,101564.31
2022-08-18T16:39:06.399Z,101558.91
2022-08-18T16:41:33.537Z,101556.00
2022-08-18T16:44:00.229Z,101552.25
2022-08-18T16:46:27.977Z,101546.81
2022-08-18T16:48:56.888Z,101540.63
2022-08-18T16:51:26.198Z,101548.50
2022-08-18T16:53:54.445Z,101558.28
2022-08-18T16:56:24.950Z,101551.00
2022-08-18T16:59:11.065Z,101553.06
2022-08-18T17:01:58.301Z,101559.53
2022-08-18T17:04:33.660Z,101547.66
2022-08-18T17:07:02.337Z,101546.03
2022-08-18T17:09:29.359Z,101554.34
2022-08-18T17:11:56.099Z,101543.72
2022-08-18T17:14:27.679Z,101548.09
2022-08-18T17:16:55.532Z,101553.91
2022-08-18T17:19:29.935Z,101547.84
2022-08-18T17:21:56.739Z,101545.34
2022-08-18T17:24:32.021Z,101545.97
2022-08-18T17:27:25.669Z,101547.63
2022-08-18T17:29:53.325Z,101553.47
2022-08-18T17:32:26.099Z,101553.66
2022-08-18T17:35:00.893Z,101547.81
2022-08-18T17:37:30.062Z,101556.97
2022-08-18T17:40:12.264Z,101554.47
2022-08-18T17:42:40.544Z,101546.13
2022-08-18T17:45:21.795Z,101540.72
2022-08-18T17:48:00.436Z,101547.16
2022-08-18T17:51:00.405Z,101548.59
2022-08-18T17:53:28.079Z,101542.56
2022-08-18T17:56:01.765Z,101549.84
2022-08-18T17:58:34.898Z,101557.31
2022-08-18T18:01:03.337Z,101551.28
2022-08-18T18:03:29.871Z,101550.81
2022-08-18T18:08:52.093Z,101560.16
2022-08-18T18:11:25.532Z,101569.28
2022-08-18T18:13:52.239Z,101561.78
2022-08-18T18:16:24.669Z,101563.44
2022-08-18T18:19:13.343Z,101561.38
2022-08-18T18:21:53.405Z,101561.38
2022-08-18T18:24:36.951Z,101561.38
2022-08-18T18:27:27.286Z,101558.22
2022-08-18T18:30:06.170Z,101557.59
2022-08-18T18:32:58.901Z,101554.06
2022-08-18T18:35:53.118Z,101548.19
2022-08-18T18:38:37.991Z,101546.53
2022-08-18T18:41:13.692Z,101556.50
2022-08-18T18:43:46.959Z,101543.41
2022-08-18T18:46:18.371Z,101555.25
2022-08-18T18:49:03.827Z,101560.66
2022-08-18T18:51:39.748Z,101546.50
2022-08-18T18:54:20.784Z,101550.25
2022-08-18T18:56:52.588Z,101560.22
2022-08-18T18:59:35.382Z,101560.22
2022-08-18T19:02:33.567Z,101554.38
2022-08-18T19:05:18.782Z,101561.81
2022-08-18T19:07:48.277Z,101556.66
2022-08-18T19:10:22.362Z,101556.41
2022-08-18T19:12:59.124Z,101559.94
2022-08-18T19:15:25.991Z,101554.72
2022-08-18T19:18:14.480Z,101556.78
2022-08-18T19:22:02.652Z,101547.63
2022-08-18T19:23:44.905Z,101555.72
2022-08-18T19:26:17.462Z,101555.72
2022-08-18T19:29:01.205Z,101545.97
2022-08-18T19:31:38.607Z,101544.28
2022-08-18T19:34:30.014Z,101545.50
2022-08-18T19:37:27.310Z,101535.34
2022-08-18T19:40:19.812Z,101531.38
2022-08-18T19:42:54.480Z,101537.03
2022-08-18T19:45:35.636Z,101543.25
2022-08-18T19:48:26.418Z,101534.50
2022-08-18T19:51:32.083Z,101537.59
2022-08-18T19:54:39.816Z,101534.06
2022-08-18T19:57:15.325Z,101535.09
2022-08-18T20:00:11.619Z,101533.78
2022-08-18T20:03:18.568Z,101536.47
2022-08-18T20:06:33.397Z,101542.72
2022-08-18T20:09:40.305Z,101532.34
2022-08-18T20:12:31.114Z,101534.63
2022-08-18T20:15:07.675Z,101537.72
2022-08-18T20:17:54.148Z,101541.88
2022-08-18T20:20:22.584Z,101542.50
2022-08-18T20:22:56.525Z,101523.78
2022-08-18T20:25:23.571Z,101536.06
2022-08-18T20:28:20.955Z,101532.72
2022-08-18T20:31:06.004Z,101541.47
2022-08-18T20:33:46.910Z,101541.00
2022-08-18T20:36:41.389Z,101545.38
2022-08-18T20:39:30.133Z,101546.88
2022-08-18T20:41:56.831Z,101546.03
2022-08-18T20:44:52.450Z,101543.53
2022-08-18T20:47:46.880Z,101543.72
2022-08-18T20:50:13.416Z,101544.56
2022-08-18T20:52:49.548Z,101546.22
2022-08-18T20:55:57.189Z,101544.75
2022-08-18T20:58:32.134Z,101538.31
2022-08-18T21:01:00.215Z,101540.38
2022-08-18T21:03:42.820Z,101553.69
2022-08-18T21:06:11.886Z,101550.34
2022-08-18T21:08:48.223Z,101552.00
2022-08-18T21:11:32.064Z,101548.66
2022-08-18T21:14:04.109Z,101544.28
2022-08-18T21:16:38.513Z,101547.63
2022-08-18T21:19:07.622Z,101547.00
2022-08-18T21:21:47.114Z,101542.00
2022-08-18T21:24:35.907Z,101543.88
2022-08-18T21:27:12.334Z,101536.81
2022-08-18T21:29:49.364Z,101544.25
2022-08-18T21:32:20.943Z,101549.00
2022-08-18T21:34:47.925Z,101542.31
2022-08-18T21:37:18.123Z,101545.84
2022-08-18T21:39:53.709Z,101541.69
2022-08-18T21:42:26.258Z,101561.00
2022-08-18T21:44:55.305Z,101552.44
2022-08-18T21:47:31.346Z,101557.66
2022-08-18T21:50:23.119Z,101561.75
2022-08-18T21:52:59.030Z,101554.69
2022-08-18T21:55:35.543Z,101562.78
2022-08-18T21:58:17.617Z,101560.47
2022-08-18T22:01:06.019Z,101570.03
2022-08-18T22:03:34.432Z,101562.97
2022-08-18T22:06:32.635Z,101567.75
2022-08-18T22:09:31.747Z,101560.03
2022-08-18T22:12:47.121Z,101567.94
2022-08-18T22:15:34.944Z,101567.28
2022-08-18T22:18:02.931Z,101555.16
2022-08-18T22:20:40.707Z,101575.69
2022-08-18T22:23:39.592Z,101568.19
2022-08-18T22:26:17.375Z,101563.53
2022-08-18T22:29:10.416Z,101561.22
2022-08-18T22:31:38.871Z,101565.34
2022-08-18T22:34:10.859Z,101565.91
2022-08-18T22:36:42.075Z,101558.78
2022-08-18T22:39:11.845Z,101570.78
2022-08-18T22:41:40.641Z,101563.44
2022-08-18T22:44:08.295Z,101566.53
2022-08-18T22:46:35.522Z,101563.56
2022-08-18T22:49:03.443Z,101570.09
2022-08-18T22:51:32.762Z,101565.44
2022-08-18T22:53:59.602Z,101559.72
2022-08-18T22:56:34.439Z,101573.06
2022-08-18T22:59:15.513Z,101568.78
2022-08-18T23:01:46.414Z,101562.09
2022-08-18T23:04:15.979Z,101557.09
2022-08-18T23:06:48.559Z,101564.91
2022-08-18T23:09:15.150Z,101564.25
2022-08-18T23:11:41.709Z,101560.28
2022-08-18T23:14:08.203Z,101553.56
2022-08-18T23:16:34.792Z,101563.69
2022-08-18T23:19:04.136Z,101568.41
2022-08-18T23:21:35.608Z,101562.94
2022-08-18T23:24:08.479Z,101552.25
2022-08-18T23:26:36.220Z,101561.91
2022-08-18T23:29:04.935Z,101559.59
2022-08-18T23:31:31.772Z,101564.44
2022-08-18T23:34:00.544Z,101569.25
2022-08-18T23:36:32.094Z,101572.94
2022-08-18T23:38:58.759Z,101570.25
2022-08-18T23:41:25.476Z,101575.09
2022-08-18T23:43:52.572Z,101559.50
2022-08-18T23:46:28.624Z,101575.94
2022-08-18T23:48:58.397Z,101571.75
2022-08-18T23:51:37.658Z,101572.78
2022-08-18T23:54:08.239Z,101580.00
2022-08-18T23:56:35.877Z,101564.22
2022-08-18T23:59:07.144Z,101569.91
